sensor_id;sensor_type;location;lat;lon;timestamp;temperature;humidity
21493;DHT22;10908;50.690;4.400;2023-11-21T00:01:17;10.90;87.50
21493;DHT22;10908;50.690;4.400;2023-11-21T00:03:43;10.90;87.20
21493;DHT22;10908;50.690;4.400;2023-11-21T00:06:09;11.00;87.00
21493;DHT22;10908;50.690;4.400;2023-11-21T00:08:35;11.10;87.00
21493;DHT22;10908;50.690;4.400;2023-11-21T00:11:01;11.10;86.90
21493;DHT22;10908;50.690;4.400;2023-11-21T00:13:27;11.10;86.80
21493;DHT22;10908;50.690;4.400;2023-11-21T00:15:53;11.00;86.80
21493;DHT22;10908;50.690;4.400;2023-11-21T00:18:18;11.10;86.70
21493;DHT22;10908;50.690;4.400;2023-11-21T00:20:44;11.10;86.60
21493;DHT22;10908;50.690;4.400;2023-11-21T00:23:10;11.00;86.40
21493;DHT22;10908;50.690;4.400;2023-11-21T00:25:36;11.00;86.50
21493;DHT22;10908;50.690;4.400;2023-11-21T00:28:01;11.00;86.70
21493;DHT22;10908;50.690;4.400;2023-11-21T00:30:27;10.80;87.00
21493;DHT22;10908;50.690;4.400;2023-11-21T00:32:54;10.90;87.10
21493;DHT22;10908;50.690;4.400;2023-11-21T00:35:20;11.00;87.00
21493;DHT22;10908;50.690;4.400;2023-11-21T00:37:45;11.10;86.80
21493;DHT22;10908;50.690;4.400;2023-11-21T00:40:12;11.00;86.70
21493;DHT22;10908;50.690;4.400;2023-11-21T00:42:37;10.90;86.80
21493;DHT22;10908;50.690;4.400;2023-11-21T00:45:03;10.90;86.80
21493;DHT22;10908;50.690;4.400;2023-11-21T00:47:29;10.90;86.80
21493;DHT22;10908;50.690;4.400;2023-11-21T00:49:55;10.70;87.00
21493;DHT22;10908;50.690;4.400;2023-11-21T00:52:20;10.60;87.30
21493;DHT22;10908;50.690;4.400;2023-11-21T00:54:46;10.70;87.70
21493;DHT22;10908;50.690;4.400;2023-11-21T00:57:13;10.50;87.80
21493;DHT22;10908;50.690;4.400;2023-11-21T00:59:39;10.30;88.30
21493;DHT22;10908;50.690;4.400;2023-11-21T01:02:05;10.40;88.60
21493;DHT22;10908;50.690;4.400;2023-11-21T01:04:30;10.40;88.60
21493;DHT22;10908;50.690;4.400;2023-11-21T01:06:58;10.40;88.30
21493;DHT22;10908;50.690;4.400;2023-11-21T01:09:23;10.40;88.20
21493;DHT22;10908;50.690;4.400;2023-11-21T01:11:49;10.40;88.20
21493;DHT22;10908;50.690;4.400;2023-11-21T01:14:15;10.40;88.00
21493;DHT22;10908;50.690;4.400;2023-11-21T01:16:43;10.40;87.90
21493;DHT22;10908;50.690;4.400;2023-11-21T01:19:08;10.30;88.00
21493;DHT22;10908;50.690;4.400;2023-11-21T01:21:34;10.20;88.20
21493;DHT22;10908;50.690;4.400;2023-11-21T01:24:00;9.90;88.10
21493;DHT22;10908;50.690;4.400;2023-11-21T01:26:25;10.20;88.00
21493;DHT22;10908;50.690;4.400;2023-11-21T01:28:51;10.40;87.30
21493;DHT22;10908;50.690;4.400;2023-11-21T01:31:17;10.40;87.00
21493;DHT22;10908;50.690;4.400;2023-11-21T01:33:43;10.50;86.80
21493;DHT22;10908;50.690;4.400;2023-11-21T01:36:09;10.60;86.30
21493;DHT22;10908;50.690;4.400;2023-11-21T01:38:35;10.60;86.00
21493;DHT22;10908;50.690;4.400;2023-11-21T01:41:01;10.60;86.00
21493;DHT22;10908;50.690;4.400;2023-11-21T01:43:27;10.50;86.20
21493;DHT22;10908;50.690;4.400;2023-11-21T01:45:56;10.30;86.40
21493;DHT22;10908;50.690;4.400;2023-11-21T01:48:23;10.10;86.70
21493;DHT22;10908;50.690;4.400;2023-11-21T01:50:49;10.00;87.00
21493;DHT22;10908;50.690;4.400;2023-11-21T01:53:15;9.90;87.60
21493;DHT22;10908;50.690;4.400;2023-11-21T01:55:41;9.80;88.00
21493;DHT22;10908;50.690;4.400;2023-11-21T01:58:08;9.70;88.40
21493;DHT22;10908;50.690;4.400;2023-11-21T02:00:35;9.80;88.60
21493;DHT22;10908;50.690;4.400;2023-11-21T02:03:00;10.00;88.50
21493;DHT22;10908;50.690;4.400;2023-11-21T02:05:26;10.10;88.40
21493;DHT22;10908;50.690;4.400;2023-11-21T02:07:52;10.10;88.40
21493;DHT22;10908;50.690;4.400;2023-11-21T02:10:18;10.10;88.30
21493;DHT22;10908;50.690;4.400;2023-11-21T02:12:48;10.10;88.10
21493;DHT22;10908;50.690;4.400;2023-11-21T02:15:16;9.90;88.20
21493;DHT22;10908;50.690;4.400;2023-11-21T02:17:49;9.80;88.30
21493;DHT22;10908;50.690;4.400;2023-11-21T02:20:17;9.90;88.40
21493;DHT22;10908;50.690;4.400;2023-11-21T02:22:48;10.10;88.40
21493;DHT22;10908;50.690;4.400;2023-11-21T02:25:14;10.40;87.80
21493;DHT22;10908;50.690;4.400;2023-11-21T02:27:39;10.50;87.10
21493;DHT22;10908;50.690;4.400;2023-11-21T02:30:05;10.20;87.50
21493;DHT22;10908;50.690;4.400;2023-11-21T02:32:33;10.00;87.90
21493;DHT22;10908;50.690;4.400;2023-11-21T02:34:59;9.90;88.30
21493;DHT22;10908;50.690;4.400;2023-11-21T02:37:28;9.90;88.60
21493;DHT22;10908;50.690;4.400;2023-11-21T02:39:54;10.10;88.30
21493;DHT22;10908;50.690;4.400;2023-11-21T02:42:19;10.30;88.20
21493;DHT22;10908;50.690;4.400;2023-11-21T02:44:45;10.40;87.90
21493;DHT22;10908;50.690;4.400;2023-11-21T02:47:10;10.40;87.80
21493;DHT22;10908;50.690;4.400;2023-11-21T02:49:36;10.30;87.90
21493;DHT22;10908;50.690;4.400;2023-11-21T02:52:02;10.60;87.40
21493;DHT22;10908;50.690;4.400;2023-11-21T02:54:28;10.60;87.00
21493;DHT22;10908;50.690;4.400;2023-11-21T02:56:54;10.70;86.90
21493;DHT22;10908;50.690;4.400;2023-11-21T02:59:19;10.60;87.00
21493;DHT22;10908;50.690;4.400;2023-11-21T03:01:45;10.70;86.70
21493;DHT22;10908;50.690;4.400;2023-11-21T03:04:12;10.40;87.10
21493;DHT22;10908;50.690;4.400;2023-11-21T03:06:43;10.50;87.40
21493;DHT22;10908;50.690;4.400;2023-11-21T03:09:09;10.40;87.40
21493;DHT22;10908;50.690;4.400;2023-11-21T03:11:35;10.40;87.60
21493;DHT22;10908;50.690;4.400;2023-11-21T03:14:00;10.40;87.80
21493;DHT22;10908;50.690;4.400;2023-11-21T03:16:26;10.40;87.90
21493;DHT22;10908;50.690;4.400;2023-11-21T03:18:52;10.40;88.00
21493;DHT22;10908;50.690;4.400;2023-11-21T03:21:17;10.40;88.20
21493;DHT22;10908;50.690;4.400;2023-11-21T03:23:43;10.50;88.20
21493;DHT22;10908;50.690;4.400;2023-11-21T03:26:12;10.50;88.20
21493;DHT22;10908;50.690;4.400;2023-11-21T03:28:38;10.50;88.10
21493;DHT22;10908;50.690;4.400;2023-11-21T03:31:04;10.50;88.10
21493;DHT22;10908;50.690;4.400;2023-11-21T03:33:29;10.60;87.90
21493;DHT22;10908;50.690;4.400;2023-11-21T03:35:55;10.60;87.70
21493;DHT22;10908;50.690;4.400;2023-11-21T03:38:21;10.70;87.70
21493;DHT22;10908;50.690;4.400;2023-11-21T03:40:46;10.60;87.70
21493;DHT22;10908;50.690;4.400;2023-11-21T03:43:13;10.50;88.00
21493;DHT22;10908;50.690;4.400;2023-11-21T03:45:39;10.40;88.20
21493;DHT22;10908;50.690;4.400;2023-11-21T03:48:06;10.40;88.30
21493;DHT22;10908;50.690;4.400;2023-11-21T03:50:32;10.40;88.50
21493;DHT22;10908;50.690;4.400;2023-11-21T03:52:57;10.20;88.80
21493;DHT22;10908;50.690;4.400;2023-11-21T03:55:23;10.30;88.90
21493;DHT22;10908;50.690;4.400;2023-11-21T03:57:50;10.50;88.80
21493;DHT22;10908;50.690;4.400;2023-11-21T04:00:17;10.40;88.60
21493;DHT22;10908;50.690;4.400;2023-11-21T04:02:43;10.40;88.70
21493;DHT22;10908;50.690;4.400;2023-11-21T04:05:09;10.50;88.60
21493;DHT22;10908;50.690;4.400;2023-11-21T04:07:35;10.70;88.30
21493;DHT22;10908;50.690;4.400;2023-11-21T04:10:02;10.60;88.20
21493;DHT22;10908;50.690;4.400;2023-11-21T04:12:28;10.70;88.10
21493;DHT22;10908;50.690;4.400;2023-11-21T04:14:53;10.90;87.50
21493;DHT22;10908;50.690;4.400;2023-11-21T04:17:19;10.80;87.00
21493;DHT22;10908;50.690;4.400;2023-11-21T04:19:45;10.70;87.20
21493;DHT22;10908;50.690;4.400;2023-11-21T04:22:11;10.80;87.20
21493;DHT22;10908;50.690;4.400;2023-11-21T04:24:37;10.80;87.20
21493;DHT22;10908;50.690;4.400;2023-11-21T04:27:03;10.90;87.10
21493;DHT22;10908;50.690;4.400;2023-11-21T04:29:28;10.90;87.00
21493;DHT22;10908;50.690;4.400;2023-11-21T04:31:55;11.00;86.60
21493;DHT22;10908;50.690;4.400;2023-11-21T04:34:20;10.80;86.80
21493;DHT22;10908;50.690;4.400;2023-11-21T04:36:46;10.80;87.00
21493;DHT22;10908;50.690;4.400;2023-11-21T04:39:11;10.80;87.10
21493;DHT22;10908;50.690;4.400;2023-11-21T04:41:37;10.60;87.30
21493;DHT22;10908;50.690;4.400;2023-11-21T04:44:05;10.40;87.80
21493;DHT22;10908;50.690;4.400;2023-11-21T04:46:31;10.30;88.40
21493;DHT22;10908;50.690;4.400;2023-11-21T04:48:57;10.20;88.80
21493;DHT22;10908;50.690;4.400;2023-11-21T04:51:23;10.30;89.10
21493;DHT22;10908;50.690;4.400;2023-11-21T04:53:49;10.50;88.60
21493;DHT22;10908;50.690;4.400;2023-11-21T04:56:15;10.80;88.10
21493;DHT22;10908;50.690;4.400;2023-11-21T04:58:41;10.80;87.60
21493;DHT22;10908;50.690;4.400;2023-11-21T05:01:07;10.80;87.50
21493;DHT22;10908;50.690;4.400;2023-11-21T05:03:33;10.50;87.70
21493;DHT22;10908;50.690;4.400;2023-11-21T05:05:59;10.40;88.10
21493;DHT22;10908;50.690;4.400;2023-11-21T05:08:25;10.40;88.50
21493;DHT22;10908;50.690;4.400;2023-11-21T05:10:52;10.40;88.40
21493;DHT22;10908;50.690;4.400;2023-11-21T05:13:19;10.50;88.50
21493;DHT22;10908;50.690;4.400;2023-11-21T05:15:45;10.30;88.60
21493;DHT22;10908;50.690;4.400;2023-11-21T05:18:11;10.30;88.90
21493;DHT22;10908;50.690;4.400;2023-11-21T05:20:39;10.40;89.00
21493;DHT22;10908;50.690;4.400;2023-11-21T05:23:06;10.30;89.10
21493;DHT22;10908;50.690;4.400;2023-11-21T05:25:32;10.60;88.70
21493;DHT22;10908;50.690;4.400;2023-11-21T05:27:57;10.60;88.20
21493;DHT22;10908;50.690;4.400;2023-11-21T05:30:26;10.50;88.40
21493;DHT22;10908;50.690;4.400;2023-11-21T05:32:52;10.40;88.60
21493;DHT22;10908;50.690;4.400;2023-11-21T05:35:18;10.50;88.70
21493;DHT22;10908;50.690;4.400;2023-11-21T05:37:45;10.70;88.10
21493;DHT22;10908;50.690;4.400;2023-11-21T05:40:11;10.90;87.70
21493;DHT22;10908;50.690;4.400;2023-11-21T05:42:39;10.90;87.40
21493;DHT22;10908;50.690;4.400;2023-11-21T05:45:06;10.90;87.20
21493;DHT22;10908;50.690;4.400;2023-11-21T05:47:37;10.90;87.10
21493;DHT22;10908;50.690;4.400;2023-11-21T05:50:04;10.80;87.30
21493;DHT22;10908;50.690;4.400;2023-11-21T05:52:31;10.90;87.00
21493;DHT22;10908;50.690;4.400;2023-11-21T05:54:58;11.10;86.70
21493;DHT22;10908;50.690;4.400;2023-11-21T05:57:23;10.90;86.70
21493;DHT22;10908;50.690;4.400;2023-11-21T05:59:49;11.00;86.80
21493;DHT22;10908;50.690;4.400;2023-11-21T06:02:14;10.90;86.70
21493;DHT22;10908;50.690;4.400;2023-11-21T06:04:40;10.70;87.30
21493;DHT22;10908;50.690;4.400;2023-11-21T06:07:06;10.80;87.50
21493;DHT22;10908;50.690;4.400;2023-11-21T06:09:32;10.90;87.30
21493;DHT22;10908;50.690;4.400;2023-11-21T06:11:58;10.80;87.30
21493;DHT22;10908;50.690;4.400;2023-11-21T06:14:24;10.80;87.50
21493;DHT22;10908;50.690;4.400;2023-11-21T06:16:49;10.80;87.50
21493;DHT22;10908;50.690;4.400;2023-11-21T06:19:16;10.60;87.80
21493;DHT22;10908;50.690;4.400;2023-11-21T06:21:45;10.70;88.10
21493;DHT22;10908;50.690;4.400;2023-11-21T06:24:11;10.90;87.60
21493;DHT22;10908;50.690;4.400;2023-11-21T06:26:38;10.90;87.30
21493;DHT22;10908;50.690;4.400;2023-11-21T06:29:04;10.70;87.70
21493;DHT22;10908;50.690;4.400;2023-11-21T06:31:29;10.40;88.20
21493;DHT22;10908;50.690;4.400;2023-11-21T06:33:55;10.30;88.80
21493;DHT22;10908;50.690;4.400;2023-11-21T06:36:21;10.30;89.10
21493;DHT22;10908;50.690;4.400;2023-11-21T06:38:46;10.20;89.50
21493;DHT22;10908;50.690;4.400;2023-11-21T06:41:12;10.20;89.80
21493;DHT22;10908;50.690;4.400;2023-11-21T06:43:41;10.30;89.90
21493;DHT22;10908;50.690;4.400;2023-11-21T06:46:06;10.30;90.00
21493;DHT22;10908;50.690;4.400;2023-11-21T06:48:32;10.30;90.00
21493;DHT22;10908;50.690;4.400;2023-11-21T06:50:58;10.40;90.10
21493;DHT22;10908;50.690;4.400;2023-11-21T06:53:23;10.40;90.00
21493;DHT22;10908;50.690;4.400;2023-11-21T06:55:50;10.40;90.00
21493;DHT22;10908;50.690;4.400;2023-11-21T06:58:15;10.70;89.60
21493;DHT22;10908;50.690;4.400;2023-11-21T07:00:41;10.80;89.20
21493;DHT22;10908;50.690;4.400;2023-11-21T07:03:11;10.60;89.10
21493;DHT22;10908;50.690;4.400;2023-11-21T07:05:37;10.50;89.30
21493;DHT22;10908;50.690;4.400;2023-11-21T07:08:03;10.60;89.30
21493;DHT22;10908;50.690;4.400;2023-11-21T07:10:29;10.50;89.30
21493;DHT22;10908;50.690;4.400;2023-11-21T07:12:55;10.80;88.90
21493;DHT22;10908;50.690;4.400;2023-11-21T07:15:22;11.00;88.20
21493;DHT22;10908;50.690;4.400;2023-11-21T07:17:48;10.80;88.10
21493;DHT22;10908;50.690;4.400;2023-11-21T07:20:13;10.80;88.20
21493;DHT22;10908;50.690;4.400;2023-11-21T07:22:42;10.80;88.10
21493;DHT22;10908;50.690;4.400;2023-11-21T07:25:08;10.60;88.30
21493;DHT22;10908;50.690;4.400;2023-11-21T07:27:35;10.80;88.10
21493;DHT22;10908;50.690;4.400;2023-11-21T07:30:02;10.80;88.30
21493;DHT22;10908;50.690;4.400;2023-11-21T07:32:31;10.90;88.20
21493;DHT22;10908;50.690;4.400;2023-11-21T07:34:57;10.90;88.10
21493;DHT22;10908;50.690;4.400;2023-11-21T07:37:25;10.90;88.20
21493;DHT22;10908;50.690;4.400;2023-11-21T07:39:51;10.90;88.20
21493;DHT22;10908;50.690;4.400;2023-11-21T07:42:23;11.00;88.00
21493;DHT22;10908;50.690;4.400;2023-11-21T07:44:49;11.00;88.00
21493;DHT22;10908;50.690;4.400;2023-11-21T07:47:15;11.00;87.80
21493;DHT22;10908;50.690;4.400;2023-11-21T07:49:41;11.00;87.80
21493;DHT22;10908;50.690;4.400;2023-11-21T07:52:09;11.10;87.50
21493;DHT22;10908;50.690;4.400;2023-11-21T07:54:35;11.00;87.50
21493;DHT22;10908;50.690;4.400;2023-11-21T07:57:01;10.80;87.90
21493;DHT22;10908;50.690;4.400;2023-11-21T07:59:29;10.60;88.40
21493;DHT22;10908;50.690;4.400;2023-11-21T08:01:55;10.80;88.50
21493;DHT22;10908;50.690;4.400;2023-11-21T08:04:20;10.70;88.70
21493;DHT22;10908;50.690;4.400;2023-11-21T08:06:46;10.90;88.50
21493;DHT22;10908;50.690;4.400;2023-11-21T08:09:12;11.10;88.10
21493;DHT22;10908;50.690;4.400;2023-11-21T08:11:38;11.20;87.80
21493;DHT22;10908;50.690;4.400;2023-11-21T08:14:05;11.20;87.70
21493;DHT22;10908;50.690;4.400;2023-11-21T08:16:30;11.30;87.50
21493;DHT22;10908;50.690;4.400;2023-11-21T08:18:56;11.30;87.40
21493;DHT22;10908;50.690;4.400;2023-11-21T08:21:22;11.30;87.40
21493;DHT22;10908;50.690;4.400;2023-11-21T08:23:50;11.40;87.40
21493;DHT22;10908;50.690;4.400;2023-11-21T08:26:23;11.40;87.30
21493;DHT22;10908;50.690;4.400;2023-11-21T08:28:49;11.40;87.20
21493;DHT22;10908;50.690;4.400;2023-11-21T08:31:15;11.40;87.30
21493;DHT22;10908;50.690;4.400;2023-11-21T08:33:41;11.40;87.30
21493;DHT22;10908;50.690;4.400;2023-11-21T08:36:08;11.40;87.40
21493;DHT22;10908;50.690;4.400;2023-11-21T08:38:34;11.40;87.50
21493;DHT22;10908;50.690;4.400;2023-11-21T08:41:06;11.30;87.70
21493;DHT22;10908;50.690;4.400;2023-11-21T08:43:36;11.30;87.70
21493;DHT22;10908;50.690;4.400;2023-11-21T08:46:05;11.30;87.90
21493;DHT22;10908;50.690;4.400;2023-11-21T08:48:31;11.30;88.10
21493;DHT22;10908;50.690;4.400;2023-11-21T08:50:57;11.30;88.40
21493;DHT22;10908;50.690;4.400;2023-11-21T08:53:22;11.40;88.40
21493;DHT22;10908;50.690;4.400;2023-11-21T08:55:48;11.40;88.40
21493;DHT22;10908;50.690;4.400;2023-11-21T08:58:15;11.60;88.10
21493;DHT22;10908;50.690;4.400;2023-11-21T09:00:41;11.40;88.10
21493;DHT22;10908;50.690;4.400;2023-11-21T09:03:07;11.40;88.40
21493;DHT22;10908;50.690;4.400;2023-11-21T09:05:37;11.40;88.20
21493;DHT22;10908;50.690;4.400;2023-11-21T09:08:03;11.50;88.30
21493;DHT22;10908;50.690;4.400;2023-11-21T09:10:29;11.50;88.30
21493;DHT22;10908;50.690;4.400;2023-11-21T09:12:54;11.60;88.20
21493;DHT22;10908;50.690;4.400;2023-11-21T09:15:20;11.50;88.10
21493;DHT22;10908;50.690;4.400;2023-11-21T09:17:46;11.40;88.30
21493;DHT22;10908;50.690;4.400;2023-11-21T09:20:12;11.50;88.20
21493;DHT22;10908;50.690;4.400;2023-11-21T09:22:37;11.40;88.30
21493;DHT22;10908;50.690;4.400;2023-11-21T09:25:03;11.40;88.40
21493;DHT22;10908;50.690;4.400;2023-11-21T09:27:31;11.50;88.50
21493;DHT22;10908;50.690;4.400;2023-11-21T09:29:57;11.40;88.70
21493;DHT22;10908;50.690;4.400;2023-11-21T09:32:23;11.50;88.80
21493;DHT22;10908;50.690;4.400;2023-11-21T09:34:49;11.50;88.90
21493;DHT22;10908;50.690;4.400;2023-11-21T09:37:16;11.60;88.90
21493;DHT22;10908;50.690;4.400;2023-11-21T09:39:42;11.60;88.80
21493;DHT22;10908;50.690;4.400;2023-11-21T09:42:09;11.60;88.80
21493;DHT22;10908;50.690;4.400;2023-11-21T09:47:05;11.50;88.90
21493;DHT22;10908;50.690;4.400;2023-11-21T09:49:36;11.40;88.90
21493;DHT22;10908;50.690;4.400;2023-11-21T09:52:03;11.40;89.10
21493;DHT22;10908;50.690;4.400;2023-11-21T09:54:31;11.50;89.40
21493;DHT22;10908;50.690;4.400;2023-11-21T09:56:59;11.50;89.30
21493;DHT22;10908;50.690;4.400;2023-11-21T09:59:30;11.60;89.10
21493;DHT22;10908;50.690;4.400;2023-11-21T10:01:57;11.70;88.90
21493;DHT22;10908;50.690;4.400;2023-11-21T10:04:24;11.60;89.00
21493;DHT22;10908;50.690;4.400;2023-11-21T10:06:50;11.60;88.90
21493;DHT22;10908;50.690;4.400;2023-11-21T10:09:17;11.50;89.20
21493;DHT22;10908;50.690;4.400;2023-11-21T10:11:45;11.60;89.10
21493;DHT22;10908;50.690;4.400;2023-11-21T10:14:11;11.70;89.10
21493;DHT22;10908;50.690;4.400;2023-11-21T10:16:39;11.60;89.30
21493;DHT22;10908;50.690;4.400;2023-11-21T10:19:06;11.60;89.20
21493;DHT22;10908;50.690;4.400;2023-11-21T10:21:35;11.70;89.20
21493;DHT22;10908;50.690;4.400;2023-11-21T10:24:01;11.80;89.10
21493;DHT22;10908;50.690;4.400;2023-11-21T10:26:28;11.80;89.20
21493;DHT22;10908;50.690;4.400;2023-11-21T10:29:01;11.80;89.10
21493;DHT22;10908;50.690;4.400;2023-11-21T10:31:32;11.80;89.00
21493;DHT22;10908;50.690;4.400;2023-11-21T10:34:20;11.80;89.00
21493;DHT22;10908;50.690;4.400;2023-11-21T10:36:46;11.80;88.90
21493;DHT22;10908;50.690;4.400;2023-11-21T10:39:19;11.80;89.10
21493;DHT22;10908;50.690;4.400;2023-11-21T10:41:46;11.80;89.10
21493;DHT22;10908;50.690;4.400;2023-11-21T10:44:14;11.70;89.50
21493;DHT22;10908;50.690;4.400;2023-11-21T10:46:49;11.60;89.40
21493;DHT22;10908;50.690;4.400;2023-11-21T10:49:21;11.60;89.50
21493;DHT22;10908;50.690;4.400;2023-11-21T10:51:49;11.70;89.40
21493;DHT22;10908;50.690;4.400;2023-11-21T10:54:20;11.70;89.20
21493;DHT22;10908;50.690;4.400;2023-11-21T10:56:51;11.60;89.20
21493;DHT22;10908;50.690;4.400;2023-11-21T10:59:18;11.50;89.40
21493;DHT22;10908;50.690;4.400;2023-11-21T11:01:46;11.50;89.50
21493;DHT22;10908;50.690;4.400;2023-11-21T11:04:13;11.60;89.30
21493;DHT22;10908;50.690;4.400;2023-11-21T11:07:05;11.50;89.30
21493;DHT22;10908;50.690;4.400;2023-11-21T11:09:35;11.60;89.50
21493;DHT22;10908;50.690;4.400;2023-11-21T11:12:02;11.70;89.40
21493;DHT22;10908;50.690;4.400;2023-11-21T11:14:30;11.80;89.40
21493;DHT22;10908;50.690;4.400;2023-11-21T11:16:58;11.80;89.10
21493;DHT22;10908;50.690;4.400;2023-11-21T11:19:25;11.90;88.80
21493;DHT22;10908;50.690;4.400;2023-11-21T11:22:19;11.90;88.40
21493;DHT22;10908;50.690;4.400;2023-11-21T11:30:15;11.90;87.80
21493;DHT22;10908;50.690;4.400;2023-11-21T11:33:09;11.90;87.90
21493;DHT22;10908;50.690;4.400;2023-11-21T11:36:02;11.80;88.10
21493;DHT22;10908;50.690;4.400;2023-11-21T11:38:33;11.80;88.30
21493;DHT22;10908;50.690;4.400;2023-11-21T11:41:02;11.80;87.90
21493;DHT22;10908;50.690;4.400;2023-11-21T11:43:29;11.80;88.00
21493;DHT22;10908;50.690;4.400;2023-11-21T11:45:57;11.80;88.10
21493;DHT22;10908;50.690;4.400;2023-11-21T11:48:24;11.90;88.40
21493;DHT22;10908;50.690;4.400;2023-11-21T11:51:13;11.90;88.30
21493;DHT22;10908;50.690;4.400;2023-11-21T11:53:44;11.80;88.40
21493;DHT22;10908;50.690;4.400;2023-11-21T11:56:29;11.80;88.40
21493;DHT22;10908;50.690;4.400;2023-11-21T11:59:04;11.80;88.20
21493;DHT22;10908;50.690;4.400;2023-11-21T12:01:33;11.90;88.30
21493;DHT22;10908;50.690;4.400;2023-11-21T12:06:45;12.00;88.30
21493;DHT22;10908;50.690;4.400;2023-11-21T12:09:29;12.10;88.20
21493;DHT22;10908;50.690;4.400;2023-11-21T12:11:56;12.20;88.00
21493;DHT22;10908;50.690;4.400;2023-11-21T12:14:22;12.30;87.90
21493;DHT22;10908;50.690;4.400;2023-11-21T12:16:49;12.30;87.60
21493;DHT22;10908;50.690;4.400;2023-11-21T12:19:14;12.20;87.60
21493;DHT22;10908;50.690;4.400;2023-11-21T12:21:40;12.10;87.60
21493;DHT22;10908;50.690;4.400;2023-11-21T12:24:14;12.10;87.60
21493;DHT22;10908;50.690;4.400;2023-11-21T12:26:40;12.10;87.60
21493;DHT22;10908;50.690;4.400;2023-11-21T12:29:06;12.00;87.70
21493;DHT22;10908;50.690;4.400;2023-11-21T12:31:33;12.00;87.70
21493;DHT22;10908;50.690;4.400;2023-11-21T12:34:00;12.00;88.00
21493;DHT22;10908;50.690;4.400;2023-11-21T12:36:26;12.00;88.20
21493;DHT22;10908;50.690;4.400;2023-11-21T12:38:54;12.00;88.30
21493;DHT22;10908;50.690;4.400;2023-11-21T12:41:20;12.00;88.20
21493;DHT22;10908;50.690;4.400;2023-11-21T12:43:47;12.10;88.10
21493;DHT22;10908;50.690;4.400;2023-11-21T12:46:13;12.10;88.20
21493;DHT22;10908;50.690;4.400;2023-11-21T12:48:41;12.10;88.40
21493;DHT22;10908;50.690;4.400;2023-11-21T12:51:10;12.20;88.30
21493;DHT22;10908;50.690;4.400;2023-11-21T12:53:44;11.90;87.90
21493;DHT22;10908;50.690;4.400;2023-11-21T12:56:10;11.60;88.50
21493;DHT22;10908;50.690;4.400;2023-11-21T12:58:37;11.50;89.20
21493;DHT22;10908;50.690;4.400;2023-11-21T13:01:05;11.60;89.50
21493;DHT22;10908;50.690;4.400;2023-11-21T13:03:31;11.80;89.60
21493;DHT22;10908;50.690;4.400;2023-11-21T13:05:58;11.80;89.50
21493;DHT22;10908;50.690;4.400;2023-11-21T13:08:25;11.80;89.20
21493;DHT22;10908;50.690;4.400;2023-11-21T13:10:56;11.70;89.20
21493;DHT22;10908;50.690;4.400;2023-11-21T13:13:22;11.80;89.30
21493;DHT22;10908;50.690;4.400;2023-11-21T13:15:53;11.80;89.20
21493;DHT22;10908;50.690;4.400;2023-11-21T13:18:21;11.80;89.10
21493;DHT22;10908;50.690;4.400;2023-11-21T13:20:47;11.80;89.10
21493;DHT22;10908;50.690;4.400;2023-11-21T13:23:13;11.90;89.00
21493;DHT22;10908;50.690;4.400;2023-11-21T13:25:42;12.00;88.90
21493;DHT22;10908;50.690;4.400;2023-11-21T13:28:08;11.90;88.70
21493;DHT22;10908;50.690;4.400;2023-11-21T13:30:38;11.90;88.70
21493;DHT22;10908;50.690;4.400;2023-11-21T13:33:06;12.10;88.70
21493;DHT22;10908;50.690;4.400;2023-11-21T13:35:37;11.90;88.60
21493;DHT22;10908;50.690;4.400;2023-11-21T13:38:08;11.90;88.60
21493;DHT22;10908;50.690;4.400;2023-11-21T13:40:35;11.90;88.80
21493;DHT22;10908;50.690;4.400;2023-11-21T13:43:14;12.00;88.80
21493;DHT22;10908;50.690;4.400;2023-11-21T13:45:41;12.00;88.70
21493;DHT22;10908;50.690;4.400;2023-11-21T13:48:08;11.90;88.80
21493;DHT22;10908;50.690;4.400;2023-11-21T13:50:45;11.90;88.90
21493;DHT22;10908;50.690;4.400;2023-11-21T13:53:24;11.80;89.00
21493;DHT22;10908;50.690;4.400;2023-11-21T13:55:51;11.80;89.20
21493;DHT22;10908;50.690;4.400;2023-11-21T13:58:22;11.80;89.20
21493;DHT22;10908;50.690;4.400;2023-11-21T14:00:51;11.70;89.50
21493;DHT22;10908;50.690;4.400;2023-11-21T14:03:23;11.60;89.70
21493;DHT22;10908;50.690;4.400;2023-11-21T14:05:57;11.60;89.80
21493;DHT22;10908;50.690;4.400;2023-11-21T14:08:26;11.60;89.70
21493;DHT22;10908;50.690;4.400;2023-11-21T14:10:54;11.60;89.60
21493;DHT22;10908;50.690;4.400;2023-11-21T14:13:25;11.50;90.00
21493;DHT22;10908;50.690;4.400;2023-11-21T14:15:51;11.50;90.10
21493;DHT22;10908;50.690;4.400;2023-11-21T14:18:23;11.50;90.00
21493;DHT22;10908;50.690;4.400;2023-11-21T14:20:56;11.20;90.40
21493;DHT22;10908;50.690;4.400;2023-11-21T14:23:22;11.30;90.70
21493;DHT22;10908;50.690;4.400;2023-11-21T14:25:49;11.40;90.70
21493;DHT22;10908;50.690;4.400;2023-11-21T14:28:18;11.50;90.50
21493;DHT22;10908;50.690;4.400;2023-11-21T14:30:45;11.40;90.20
21493;DHT22;10908;50.690;4.400;2023-11-21T14:33:12;11.40;90.40
21493;DHT22;10908;50.690;4.400;2023-11-21T14:35:37;11.40;90.50
21493;DHT22;10908;50.690;4.400;2023-11-21T14:38:03;11.40;90.50
21493;DHT22;10908;50.690;4.400;2023-11-21T14:40:33;11.50;90.50
21493;DHT22;10908;50.690;4.400;2023-11-21T14:43:01;11.30;90.40
21493;DHT22;10908;50.690;4.400;2023-11-21T14:45:28;11.40;90.30
21493;DHT22;10908;50.690;4.400;2023-11-21T14:47:54;11.40;90.50
21493;DHT22;10908;50.690;4.400;2023-11-21T14:50:40;11.30;90.60
21493;DHT22;10908;50.690;4.400;2023-11-21T14:53:35;11.30;90.70
21493;DHT22;10908;50.690;4.400;2023-11-21T14:56:20;11.30;90.70
21493;DHT22;10908;50.690;4.400;2023-11-21T14:58:55;11.30;90.70
21493;DHT22;10908;50.690;4.400;2023-11-21T15:01:22;11.20;90.70
21493;DHT22;10908;50.690;4.400;2023-11-21T15:04:07;11.30;90.80
21493;DHT22;10908;50.690;4.400;2023-11-21T15:06:37;11.30;91.00
21493;DHT22;10908;50.690;4.400;2023-11-21T15:09:06;11.50;90.70
21493;DHT22;10908;50.690;4.400;2023-11-21T15:11:35;11.40;90.80
21493;DHT22;10908;50.690;4.400;2023-11-21T15:14:02;11.20;90.70
21493;DHT22;10908;50.690;4.400;2023-11-21T15:16:33;11.30;91.00
21493;DHT22;10908;50.690;4.400;2023-11-21T15:18:58;11.10;91.20
21493;DHT22;10908;50.690;4.400;2023-11-21T15:21:24;11.10;91.30
21493;DHT22;10908;50.690;4.400;2023-11-21T15:23:50;11.20;91.50
21493;DHT22;10908;50.690;4.400;2023-11-21T15:26:16;11.20;91.50
21493;DHT22;10908;50.690;4.400;2023-11-21T15:28:42;11.30;91.70
21493;DHT22;10908;50.690;4.400;2023-11-21T15:31:08;11.20;91.70
21493;DHT22;10908;50.690;4.400;2023-11-21T15:33:34;11.30;91.50
21493;DHT22;10908;50.690;4.400;2023-11-21T15:36:02;11.10;91.50
21493;DHT22;10908;50.690;4.400;2023-11-21T15:38:29;11.00;91.70
21493;DHT22;10908;50.690;4.400;2023-11-21T15:43:26;11.10;92.10
21493;DHT22;10908;50.690;4.400;2023-11-21T15:45:53;11.20;92.00
21493;DHT22;10908;50.690;4.400;2023-11-21T15:48:21;11.30;91.90